createdAt,value
2022-10-31T00:00:09.082Z,11.00
2022-10-31T00:02:36.807Z,10.94
2022-10-31T00:05:06.333Z,11.06
2022-10-31T00:07:40.103Z,11.06
2022-10-31T00:10:09.093Z,11.00
2022-10-31T00:12:36.604Z,10.94
2022-10-31T00:15:05.691Z,10.81
2022-10-31T00:17:37.168Z,10.69
2022-10-31T00:20:07.862Z,10.94
2022-10-31T00:22:37.486Z,10.94
2022-10-31T00:25:05.325Z,10.88
2022-10-31T00:27:34.840Z,10.94
2022-10-31T00:30:08.385Z,11.00
2022-10-31T00:35:38.644Z,11.00
2022-10-31T00:38:10.973Z,11.00
2022-10-31T00:40:43.299Z,10.88
2022-10-31T00:45:41.232Z,10.81
2022-10-31T00:48:10.092Z,10.88
2022-10-31T00:50:44.114Z,10.81
2022-10-31T00:53:18.552Z,10.63
2022-10-31T00:55:49.390Z,10.69
2022-10-31T00:58:20.575Z,10.63
2022-10-31T01:03:35.673Z,10.63
2022-10-31T01:06:13.906Z,10.38
2022-10-31T01:08:46.133Z,10.44
2022-10-31T01:11:25.335Z,10.63
2022-10-31T01:13:56.227Z,10.56
2022-10-31T01:16:32.689Z,10.56
2022-10-31T01:19:00.531Z,10.31
2022-10-31T01:21:35.370Z,10.44
2022-10-31T01:24:04.190Z,10.50
2022-10-31T01:26:34.804Z,10.50
2022-10-31T01:29:07.555Z,10.75
2022-10-31T01:31:39.648Z,10.31
2022-10-31T01:34:16.021Z,10.25
2022-10-31T01:36:46.920Z,10.31
2022-10-31T01:39:16.934Z,10.31
2022-10-31T01:41:50.843Z,10.44
2022-10-31T01:44:18.131Z,10.50
2022-10-31T01:47:00.505Z,10.25
2022-10-31T01:49:30.900Z,10.44
2022-10-31T01:52:09.656Z,10.13
2022-10-31T01:54:42.827Z,10.44
2022-10-31T01:57:14.601Z,10.44
2022-10-31T01:59:51.246Z,10.25
2022-10-31T02:02:23.503Z,10.13
2022-10-31T02:04:51.426Z,10.19
2022-10-31T02:07:46.631Z,10.13
2022-10-31T02:10:14.292Z,10.38
2022-10-31T02:12:43.529Z,10.31
2022-10-31T02:15:11.873Z,10.38
2022-10-31T02:17:39.578Z,10.56
2022-10-31T02:20:22.276Z,10.44
2022-10-31T02:23:21.693Z,10.50
2022-10-31T02:26:27.595Z,10.44
2022-10-31T02:29:11.849Z,10.50
2022-10-31T02:31:52.165Z,10.38
2022-10-31T02:34:54.453Z,10.13
2022-10-31T02:37:33.164Z,10.25
2022-10-31T02:40:29.209Z,10.38
2022-10-31T02:43:42.270Z,10.13
2022-10-31T02:46:23.844Z,10.25
2022-10-31T02:48:58.362Z,10.19
2022-10-31T02:51:26.322Z,10.31
2022-10-31T02:53:54.006Z,10.06
2022-10-31T02:56:25.276Z,9.88
2022-10-31T02:58:59.568Z,10.00
2022-10-31T03:01:48.835Z,10.06
2022-10-31T03:04:54.838Z,10.25
2022-10-31T03:08:02.247Z,10.06
2022-10-31T03:10:50.834Z,10.19
2022-10-31T03:13:47.131Z,10.19
2022-10-31T03:16:25.572Z,10.13
2022-10-31T03:19:10.306Z,10.13
2022-10-31T03:21:57.769Z,10.00
2022-10-31T03:24:34.825Z,10.00
2022-10-31T03:27:03.618Z,10.00
2022-10-31T03:29:37.719Z,9.81
2022-10-31T03:32:17.863Z,9.88
2022-10-31T03:34:47.670Z,10.00
2022-10-31T03:37:19.388Z,10.00
2022-10-31T03:39:50.299Z,10.06
2022-10-31T03:42:25.156Z,10.13
2022-10-31T03:45:08.309Z,10.06
2022-10-31T03:47:38.191Z,9.75
2022-10-31T03:50:11.236Z,9.81
2022-10-31T03:53:03.240Z,9.69
2022-10-31T03:55:40.782Z,9.75
2022-10-31T03:58:16.795Z,9.75
2022-10-31T04:00:47.830Z,9.88
2022-10-31T04:03:26.479Z,9.88
2022-10-31T04:05:58.068Z,9.56
2022-10-31T04:08:31.891Z,9.69
2022-10-31T04:11:02.624Z,9.63
2022-10-31T04:13:34.446Z,9.69
2022-10-31T04:16:02.100Z,9.69
2022-10-31T04:18:29.921Z,9.81
2022-10-31T04:21:09.103Z,9.75
2022-10-31T04:23:38.322Z,9.56
2022-10-31T04:26:06.461Z,9.38
2022-10-31T04:28:35.321Z,9.38
2022-10-31T04:31:03.110Z,9.44
2022-10-31T04:33:31.371Z,9.38
2022-10-31T04:35:58.973Z,9.56
2022-10-31T04:38:27.093Z,9.63
2022-10-31T04:40:57.054Z,9.50
2022-10-31T04:43:29.269Z,9.63
2022-10-31T04:45:57.214Z,9.38
2022-10-31T04:48:26.114Z,9.31
2022-10-31T04:50:54.083Z,9.31
2022-10-31T04:53:34.381Z,9.56
2022-10-31T04:56:07.943Z,9.44
2022-10-31T04:58:36.234Z,9.50
2022-10-31T05:01:04.077Z,9.38
2022-10-31T05:06:14.198Z,9.38
2022-10-31T05:08:42.278Z,9.44
2022-10-31T05:11:10.286Z,9.25
2022-10-31T05:13:37.869Z,9.31
2022-10-31T05:16:05.722Z,9.44
2022-10-31T05:18:33.707Z,9.38
2022-10-31T05:21:01.260Z,9.44
2022-10-31T05:23:29.280Z,9.19
2022-10-31T05:25:57.035Z,9.50
2022-10-31T05:28:24.857Z,9.56
2022-10-31T05:30:53.152Z,9.38
2022-10-31T05:33:20.599Z,9.50
2022-10-31T05:35:48.279Z,9.44
2022-10-31T05:38:15.800Z,9.25
2022-10-31T05:40:43.705Z,9.25
2022-10-31T05:43:11.395Z,9.44
2022-10-31T05:45:39.003Z,9.38
2022-10-31T05:48:07.079Z,9.25
2022-10-31T05:50:34.892Z,9.38
2022-10-31T05:53:06.423Z,9.13
2022-10-31T05:55:34.795Z,9.13
2022-10-31T05:58:02.941Z,9.38
2022-10-31T06:00:31.130Z,9.06
2022-10-31T06:05:36.874Z,9.25
2022-10-31T06:08:05.406Z,9.38
2022-10-31T06:10:33.079Z,9.38
2022-10-31T06:13:00.675Z,9.44
2022-10-31T06:15:28.344Z,9.19
2022-10-31T06:18:06.807Z,9.38
2022-10-31T06:20:35.168Z,9.31
2022-10-31T06:23:04.036Z,9.19
2022-10-31T06:25:35.004Z,9.38
2022-10-31T06:28:02.925Z,9.19
2022-10-31T06:30:30.756Z,9.13
2022-10-31T06:33:05.241Z,9.31
2022-10-31T06:35:33.447Z,9.50
2022-10-31T06:38:01.093Z,9.63
2022-10-31T06:40:32.453Z,9.44
2022-10-31T06:43:03.975Z,9.44
2022-10-31T06:45:34.801Z,9.38
2022-10-31T06:48:18.589Z,9.00
2022-10-31T06:50:47.444Z,9.19
2022-10-31T06:53:18.965Z,9.00
2022-10-31T06:55:51.955Z,9.19
2022-10-31T06:58:27.489Z,9.06
2022-10-31T07:01:04.917Z,9.13
2022-10-31T07:03:33.598Z,9.13
2022-10-31T07:06:01.633Z,9.06
2022-10-31T07:08:31.449Z,9.00
2022-10-31T07:10:59.927Z,9.06
2022-10-31T07:13:27.602Z,9.13
2022-10-31T07:16:01.873Z,9.25
2022-10-31T07:18:29.832Z,9.44
2022-10-31T07:20:57.590Z,9.44
2022-10-31T07:23:25.100Z,9.31
2022-10-31T07:26:00.282Z,9.13
2022-10-31T07:28:29.092Z,9.25
2022-10-31T07:30:59.178Z,9.06
2022-10-31T07:33:29.589Z,8.88
2022-10-31T07:35:57.004Z,9.13
2022-10-31T07:38:25.074Z,9.13
2022-10-31T07:40:54.300Z,9.19
2022-10-31T07:43:22.397Z,8.94
2022-10-31T07:45:56.472Z,9.19
2022-10-31T07:48:26.846Z,9.25
2022-10-31T07:50:54.265Z,9.31
2022-10-31T07:53:21.684Z,9.38
2022-10-31T07:55:49.193Z,9.38
2022-10-31T07:58:20.390Z,9.31
2022-10-31T08:00:49.495Z,9.25
2022-10-31T08:03:21.045Z,9.25
2022-10-31T08:05:48.536Z,9.69
2022-10-31T08:08:16.680Z,9.38
2022-10-31T08:10:44.475Z,9.50
2022-10-31T08:13:14.973Z,9.75
2022-10-31T08:15:43.302Z,9.56
2022-10-31T08:18:15.917Z,9.75
2022-10-31T08:20:44.819Z,9.31
2022-10-31T08:23:14.430Z,9.63
2022-10-31T08:25:43.368Z,9.63
2022-10-31T08:28:12.926Z,9.75
2022-10-31T08:30:44.424Z,9.75
2022-10-31T08:33:18.027Z,9.75
2022-10-31T08:35:45.891Z,9.81
2022-10-31T08:38:15.708Z,9.75
2022-10-31T08:40:43.705Z,9.75
2022-10-31T08:43:16.273Z,9.75
2022-10-31T08:45:51.608Z,9.94
2022-10-31T08:48:19.796Z,9.63
2022-10-31T08:50:47.721Z,9.69
2022-10-31T08:53:20.927Z,9.69
2022-10-31T08:55:49.817Z,9.88
2022-10-31T08:58:20.271Z,10.00
2022-10-31T09:00:50.662Z,10.00
2022-10-31T09:03:21.291Z,9.88
2022-10-31T09:05:48.999Z,9.75
2022-10-31T09:08:17.652Z,10.00
2022-10-31T09:10:46.522Z,10.19
2022-10-31T09:13:18.300Z,10.06
2022-10-31T09:15:48.316Z,10.00
2022-10-31T09:18:19.026Z,10.13
2022-10-31T09:20:48.741Z,10.31
2022-10-31T09:23:20.102Z,10.00
2022-10-31T09:25:52.761Z,10.31
2022-10-31T09:28:24.101Z,9.94
2022-10-31T09:30:55.235Z,10.25
2022-10-31T09:33:24.223Z,10.50
2022-10-31T09:35:52.610Z,10.50
2022-10-31T09:38:24.470Z,10.50
2022-10-31T09:41:33.005Z,10.38
2022-10-31T09:44:34.746Z,10.44
2022-10-31T09:47:40.003Z,10.63
2022-10-31T09:53:06.574Z,10.56
2022-10-31T09:55:41.004Z,10.63
2022-10-31T09:58:21.350Z,10.56
2022-10-31T10:00:50.070Z,10.56
2022-10-31T10:03:37.175Z,10.50
2022-10-31T10:06:24.863Z,10.63
2022-10-31T10:08:52.453Z,10.50
2022-10-31T10:12:03.627Z,10.56
2022-10-31T10:14:52.793Z,10.69
2022-10-31T10:17:50.398Z,10.63
2022-10-31T10:20:45.946Z,10.63
2022-10-31T10:23:54.070Z,10.75
2022-10-31T10:26:33.195Z,10.94
2022-10-31T10:29:24.980Z,10.88
2022-10-31T10:31:55.676Z,10.75
2022-10-31T10:34:34.606Z,10.75
2022-10-31T10:37:16.624Z,10.88
2022-10-31T10:39:51.700Z,11.06
2022-10-31T10:42:37.789Z,11.19
2022-10-31T10:45:42.047Z,11.31
2022-10-31T10:48:29.337Z,11.38
2022-10-31T10:54:16.940Z,11.63
2022-10-31T10:57:30.206Z,11.69
2022-10-31T11:00:23.116Z,11.63
2022-10-31T11:02:51.618Z,11.69
2022-10-31T11:05:38.981Z,11.88
2022-10-31T11:08:12.727Z,11.81
2022-10-31T11:10:40.279Z,12.06
2022-10-31T11:13:17.079Z,12.13
2022-10-31T11:16:19.629Z,12.06
2022-10-31T11:18:50.197Z,12.06
2022-10-31T11:21:41.970Z,12.19
2022-10-31T11:24:21.728Z,12.06
2022-10-31T11:26:52.930Z,12.25
2022-10-31T11:29:26.251Z,12.38
2022-10-31T11:32:01.083Z,12.19
2022-10-31T11:34:35.453Z,12.13
2022-10-31T11:37:21.353Z,12.06
2022-10-31T11:39:54.888Z,12.00
2022-10-31T11:42:33.879Z,12.06
2022-10-31T11:45:10.185Z,12.00
2022-10-31T11:47:38.154Z,12.19
2022-10-31T11:50:16.964Z,12.38
2022-10-31T11:52:47.553Z,12.38
2022-10-31T11:55:16.708Z,12.38
2022-10-31T11:57:46.789Z,12.31
2022-10-31T12:00:30.675Z,12.25
2022-10-31T12:03:25.947Z,12.19
2022-10-31T12:06:09.930Z,12.19
2022-10-31T12:08:39.953Z,12.19
2022-10-31T12:11:54.426Z,12.19
2022-10-31T12:15:01.899Z,12.19
2022-10-31T12:17:52.483Z,12.13
2022-10-31T12:20:56.438Z,12.19
2022-10-31T12:24:02.686Z,12.06
2022-10-31T12:26:45.764Z,12.06
2022-10-31T12:30:04.726Z,12.13
2022-10-31T12:33:12.832Z,12.13
2022-10-31T12:36:20.116Z,12.00
2022-10-31T12:39:07.472Z,12.06
2022-10-31T12:41:54.301Z,12.06
2022-10-31T12:44:46.157Z,12.06
2022-10-31T12:48:13.449Z,12.13
2022-10-31T12:51:18.698Z,12.00
2022-10-31T12:53:53.544Z,12.00
2022-10-31T12:56:57.813Z,12.06
2022-10-31T12:59:58.571Z,12.13
2022-10-31T13:02:42.291Z,12.19
2022-10-31T13:05:46.873Z,12.19
2022-10-31T13:08:36.503Z,12.25
2022-10-31T13:11:38.800Z,12.06
2022-10-31T13:14:25.748Z,12.19
2022-10-31T13:16:55.357Z,12.13
2022-10-31T13:19:47.231Z,12.19
2022-10-31T13:22:29.070Z,12.25
2022-10-31T13:25:26.111Z,12.25
2022-10-31T13:28:09.057Z,12.19
2022-10-31T13:30:42.747Z,12.13
2022-10-31T13:33:36.406Z,11.94
2022-10-31T13:36:43.451Z,12.06
2022-10-31T13:39:57.186Z,12.00
2022-10-31T13:43:06.585Z,12.13
2022-10-31T13:45:34.433Z,11.94
2022-10-31T13:48:24.965Z,12.06
2022-10-31T13:51:04.551Z,11.94
2022-10-31T13:53:44.181Z,11.75
2022-10-31T13:56:30.601Z,11.63
2022-10-31T13:59:14.497Z,11.69
2022-10-31T14:02:02.265Z,11.88
2022-10-31T14:04:49.233Z,11.75
2022-10-31T14:07:22.283Z,11.63
2022-10-31T14:10:34.694Z,11.69
2022-10-31T14:13:45.415Z,11.69
2022-10-31T14:16:25.680Z,11.56
2022-10-31T14:19:14.486Z,11.69
2022-10-31T14:32:45.200Z,11.50
2022-10-31T14:35:21.385Z,11.56
2022-10-31T14:38:19.940Z,11.50
2022-10-31T14:41:07.575Z,11.63
2022-10-31T14:44:09.872Z,11.63
2022-10-31T14:47:15.627Z,11.44
2022-10-31T14:50:11.311Z,11.56
2022-10-31T14:52:40.757Z,11.50
2022-10-31T14:55:14.146Z,11.44
2022-10-31T14:57:56.015Z,11.44
2022-10-31T15:00:26.682Z,11.38
2022-10-31T15:03:12.181Z,11.38
2022-10-31T15:05:51.461Z,11.25
2022-10-31T15:08:47.154Z,11.25
2022-10-31T15:14:03.730Z,11.25
2022-10-31T15:16:38.704Z,11.06
2022-10-31T15:19:14.041Z,11.06
2022-10-31T15:21:48.516Z,11.06
2022-10-31T15:24:22.207Z,10.94
2022-10-31T15:26:53.016Z,10.94
2022-10-31T15:29:37.723Z,11.13
2022-10-31T15:32:23.863Z,11.00
2022-10-31T15:35:04.778Z,10.94
2022-10-31T15:37:32.289Z,10.88
2022-10-31T15:40:16.187Z,10.75
2022-10-31T15:42:46.837Z,10.88
2022-10-31T15:45:15.571Z,10.88
2022-10-31T15:48:03.061Z,10.88
2022-10-31T15:50:38.554Z,10.81
2022-10-31T15:53:24.490Z,10.88
2022-10-31T15:58:56.334Z,10.81
2022-10-31T16:07:31.976Z,10.75
2022-10-31T16:10:04.765Z,10.69
2022-10-31T16:16:32.990Z,10.69
2022-10-31T16:21:43.473Z,10.63
2022-10-31T16:36:35.468Z,10.50
2022-10-31T16:50:37.446Z,10.50
2022-10-31T16:53:13.738Z,10.56
2022-10-31T16:56:04.156Z,10.69
2022-10-31T16:58:36.817Z,10.63
2022-10-31T17:01:08.931Z,10.69
2022-10-31T17:03:37.177Z,10.63
2022-10-31T17:06:06.041Z,10.56
2022-10-31T17:08:34.463Z,10.56
2022-10-31T17:11:03.571Z,10.50
2022-10-31T17:13:33.831Z,10.75
2022-10-31T17:16:03.953Z,10.69
2022-10-31T17:18:32.665Z,10.75
2022-10-31T17:21:03.826Z,11.00
2022-10-31T17:23:36.008Z,10.88
2022-10-31T17:26:03.656Z,11.00
2022-10-31T17:28:31.115Z,10.81
2022-10-31T17:30:59.532Z,10.88
2022-10-31T17:33:27.415Z,10.75
2022-10-31T17:35:55.199Z,10.69
2022-10-31T17:38:22.639Z,10.63
2022-10-31T17:40:50.158Z,10.69
2022-10-31T17:43:18.229Z,10.81
2022-10-31T17:45:49.592Z,10.75
2022-10-31T17:48:17.429Z,10.81
2022-10-31T17:50:44.958Z,10.75
2022-10-31T17:53:12.430Z,10.75
2022-10-31T17:55:39.921Z,10.75
2022-10-31T17:58:07.359Z,10.69
2022-10-31T18:00:35.505Z,10.75
2022-10-31T18:03:04.780Z,10.69
2022-10-31T18:05:32.748Z,10.69
2022-10-31T18:08:03.805Z,10.88
2022-10-31T18:10:36.395Z,10.94
2022-10-31T18:13:04.157Z,10.81
2022-10-31T18:15:31.728Z,10.69
2022-10-31T18:17:59.591Z,10.81
2022-10-31T18:20:27.315Z,10.81
2022-10-31T18:22:55.121Z,10.81
2022-10-31T18:25:22.590Z,10.81
2022-10-31T18:27:50.083Z,10.69
2022-10-31T18:30:18.977Z,10.88
2022-10-31T18:32:55.515Z,10.75
2022-10-31T18:35:23.012Z,10.88
2022-10-31T18:37:50.709Z,10.75
2022-10-31T18:40:18.331Z,10.81
2022-10-31T18:42:45.790Z,10.81
2022-10-31T18:45:41.031Z,10.69
2022-10-31T18:48:00.899Z,10.69
2022-10-31T18:50:28.667Z,10.75
2022-10-31T18:52:56.660Z,10.94
2022-10-31T18:55:24.082Z,10.81
2022-10-31T18:57:51.551Z,10.75
2022-10-31T19:00:19.280Z,10.81
2022-10-31T19:02:46.761Z,10.81
2022-10-31T19:05:14.303Z,10.88
2022-10-31T19:07:41.780Z,10.88
2022-10-31T19:10:12.376Z,10.81
2022-10-31T19:12:39.828Z,10.69
2022-10-31T19:15:07.796Z,10.75
2022-10-31T19:17:35.290Z,10.63
2022-10-31T19:20:02.803Z,10.69
2022-10-31T19:22:32.430Z,10.63
2022-10-31T19:25:00.100Z,10.63
2022-10-31T19:27:28.257Z,10.63
2022-10-31T19:29:55.837Z,10.69
2022-10-31T19:32:23.523Z,10.56
2022-10-31T19:34:50.989Z,10.50
2022-10-31T19:37:18.410Z,10.50
2022-10-31T19:39:45.976Z,10.63
2022-10-31T19:42:13.434Z,10.63
2022-10-31T19:44:40.877Z,10.63
2022-10-31T19:47:08.405Z,10.63
2022-10-31T19:49:36.089Z,10.63
2022-10-31T19:52:03.557Z,10.50
2022-10-31T19:54:33.276Z,10.63
2022-10-31T19:57:00.884Z,10.56
2022-10-31T19:59:28.420Z,10.81
2022-10-31T20:01:55.875Z,10.75
2022-10-31T20:04:23.621Z,10.63
2022-10-31T20:06:51.285Z,10.75
2022-10-31T20:09:18.857Z,10.81
2022-10-31T20:11:47.632Z,10.75
2022-10-31T20:14:17.786Z,10.81
2022-10-31T20:16:46.062Z,10.69
2022-10-31T20:19:13.613Z,10.63
2022-10-31T20:21:42.519Z,10.69
2022-10-31T20:24:11.846Z,10.75
2022-10-31T20:26:41.612Z,10.81
2022-10-31T20:29:16.682Z,10.88
2022-10-31T20:31:46.084Z,10.88
2022-10-31T20:34:15.047Z,10.88
2022-10-31T20:36:42.742Z,10.88
2022-10-31T20:39:12.917Z,10.81
2022-10-31T20:41:40.511Z,10.94
2022-10-31T20:44:08.120Z,10.94
2022-10-31T20:46:35.590Z,10.81
2022-10-31T20:49:03.116Z,10.88
2022-10-31T20:51:31.993Z,11.00
2022-10-31T20:54:01.528Z,10.88
2022-10-31T20:59:29.437Z,10.88
2022-10-31T21:01:56.969Z,10.88
2022-10-31T21:04:24.865Z,10.94
2022-10-31T21:06:52.379Z,10.81
2022-10-31T21:09:20.797Z,10.88
2022-10-31T21:11:48.227Z,10.81
2022-10-31T21:14:16.094Z,10.94
2022-10-31T21:16:43.525Z,10.81
2022-10-31T21:19:11.932Z,11.00
2022-10-31T21:21:39.903Z,10.81
2022-10-31T21:24:27.327Z,10.81
2022-10-31T21:26:55.215Z,10.88
2022-10-31T21:29:23.292Z,10.81
2022-10-31T21:31:51.240Z,10.75
2022-10-31T21:34:19.028Z,10.88
2022-10-31T21:36:46.619Z,10.81
2022-10-31T21:39:16.192Z,10.63
2022-10-31T21:41:45.585Z,10.81
2022-10-31T21:44:13.104Z,10.69
2022-10-31T21:46:40.958Z,10.81
2022-10-31T21:49:10.334Z,10.75
2022-10-31T21:51:37.890Z,10.69
2022-10-31T21:54:24.209Z,10.75
2022-10-31T21:56:54.914Z,10.81
2022-10-31T21:59:22.573Z,10.75
2022-10-31T22:01:51.371Z,10.75
2022-10-31T22:04:19.971Z,10.75
2022-10-31T22:06:47.621Z,10.88
2022-10-31T22:09:16.642Z,10.81
2022-10-31T22:11:44.952Z,10.94
2022-10-31T22:14:16.261Z,11.06
2022-10-31T22:16:46.865Z,10.81
2022-10-31T22:19:53.103Z,10.75
2022-10-31T22:22:21.041Z,10.88
2022-10-31T22:24:48.508Z,10.94
2022-10-31T22:27:16.890Z,11.00
2022-10-31T22:29:45.733Z,11.00
2022-10-31T22:32:13.319Z,10.81
2022-10-31T22:34:41.980Z,10.81
2022-10-31T22:37:10.094Z,10.94
2022-10-31T22:39:40.370Z,10.94
2022-10-31T22:42:07.930Z,10.88
2022-10-31T22:44:35.327Z,11.00
2022-10-31T22:47:02.725Z,11.06
2022-10-31T22:49:31.103Z,11.13
2022-10-31T22:52:03.186Z,11.13
2022-10-31T22:54:31.372Z,11.00
2022-10-31T22:56:58.873Z,11.06
2022-10-31T22:59:26.253Z,10.88
2022-10-31T23:01:54.631Z,10.75
2022-10-31T23:04:22.311Z,10.94
2022-10-31T23:06:49.727Z,10.94
2022-10-31T23:09:18.729Z,10.94
2022-10-31T23:11:46.348Z,10.88
2022-10-31T23:14:20.893Z,10.75
2022-10-31T23:16:57.329Z,10.75
2022-10-31T23:19:30.749Z,10.75
2022-10-31T23:22:03.090Z,10.81
2022-10-31T23:24:37.838Z,10.81
2022-10-31T23:27:18.615Z,10.88
2022-10-31T23:29:55.654Z,10.88
2022-10-31T23:32:32.781Z,10.94
2022-10-31T23:35:07.739Z,10.88
2022-10-31T23:37:38.768Z,10.75
2022-10-31T23:40:10.765Z,10.75
2022-10-31T23:42:38.201Z,10.81
2022-10-31T23:45:06.238Z,10.75
2022-10-31T23:47:33.738Z,10.94
2022-10-31T23:50:01.126Z,11.00
2022-10-31T23:52:28.534Z,10.81
2022-10-31T23:54:56.537Z,10.88
2022-10-31T23:57:23.966Z,10.88
2022-10-31T23:59:51.645Z,10.88
